createdAt,value
2023-05-20T00:00:10.935Z,12.15
2023-05-20T00:03:00.643Z,12.15
2023-05-20T00:05:29.489Z,12.14
2023-05-20T00:07:59.938Z,12.12
2023-05-20T00:10:29.631Z,12.13
2023-05-20T00:12:58.405Z,12.12
2023-05-20T00:15:27.334Z,12.11
2023-05-20T00:17:56.583Z,12.10
2023-05-20T00:20:25.381Z,12.08
2023-05-20T00:22:54.260Z,12.08
2023-05-20T00:25:23.000Z,12.08
2023-05-20T00:27:51.776Z,12.08
2023-05-20T00:30:21.159Z,12.07
2023-05-20T00:32:50.056Z,12.06
2023-05-20T00:35:18.853Z,12.03
2023-05-20T00:37:47.657Z,12.02
2023-05-20T00:40:16.760Z,12.02
2023-05-20T00:42:45.708Z,12.02
2023-05-20T00:45:14.510Z,12.03
2023-05-20T00:47:43.523Z,12.05
2023-05-20T00:50:12.762Z,12.07
2023-05-20T00:52:44.549Z,12.07
2023-05-20T00:55:13.631Z,12.07
2023-05-20T00:57:42.477Z,12.06
2023-05-20T01:00:13.659Z,12.07
2023-05-20T01:02:42.670Z,12.07
2023-05-20T01:05:11.534Z,12.08
2023-05-20T01:07:40.703Z,12.10
2023-05-20T01:10:11.332Z,12.10
2023-05-20T01:12:46.254Z,12.10
2023-05-20T01:15:16.183Z,12.09
2023-05-20T01:17:47.103Z,12.09
2023-05-20T01:20:15.991Z,12.09
2023-05-20T01:22:54.294Z,12.08
2023-05-20T01:25:24.362Z,12.08
2023-05-20T01:27:54.708Z,12.07
2023-05-20T01:30:29.842Z,12.07
2023-05-20T01:33:04.881Z,12.08
2023-05-20T01:35:34.765Z,12.07
2023-05-20T01:38:05.102Z,12.06
2023-05-20T01:40:34.870Z,12.05
2023-05-20T01:43:04.386Z,12.04
2023-05-20T01:45:33.327Z,11.99
2023-05-20T01:48:03.304Z,11.95
2023-05-20T01:50:32.044Z,11.94
2023-05-20T01:53:00.708Z,11.93
2023-05-20T01:55:29.796Z,11.92
2023-05-20T01:57:58.656Z,11.92
2023-05-20T02:00:27.492Z,11.90
2023-05-20T02:02:56.308Z,11.90
2023-05-20T02:05:26.099Z,11.91
2023-05-20T02:07:54.797Z,11.93
2023-05-20T02:10:24.723Z,11.95
2023-05-20T02:12:53.334Z,11.98
2023-05-20T02:15:22.015Z,12.00
2023-05-20T02:17:50.873Z,12.02
2023-05-20T02:20:19.582Z,12.03
2023-05-20T02:22:48.560Z,12.04
2023-05-20T02:25:17.513Z,12.04
2023-05-20T02:27:46.208Z,12.03
2023-05-20T02:30:16.673Z,12.04
2023-05-20T02:32:45.355Z,12.03
2023-05-20T02:35:14.261Z,12.02
2023-05-20T02:37:44.341Z,12.01
2023-05-20T02:40:13.701Z,11.98
2023-05-20T02:42:42.467Z,11.94
2023-05-20T02:45:11.421Z,11.93
2023-05-20T02:47:40.593Z,11.91
2023-05-20T02:50:10.210Z,11.89
2023-05-20T02:52:41.756Z,11.87
2023-05-20T02:55:11.296Z,11.85
2023-05-20T02:57:40.338Z,11.83
2023-05-20T03:00:11.537Z,11.81
2023-05-20T03:02:41.109Z,11.79
2023-05-20T03:05:11.818Z,11.77
2023-05-20T03:07:40.538Z,11.75
2023-05-20T03:10:10.693Z,11.71
2023-05-20T03:12:40.921Z,11.69
2023-05-20T03:15:11.991Z,11.66
2023-05-20T03:17:42.530Z,11.66
2023-05-20T03:20:13.178Z,11.66
2023-05-20T03:22:42.376Z,11.65
2023-05-20T03:25:11.933Z,11.64
2023-05-20T03:27:42.398Z,11.62
2023-05-20T03:30:13.264Z,11.61
2023-05-20T03:32:42.348Z,11.59
2023-05-20T03:35:11.442Z,11.58
2023-05-20T03:37:40.525Z,11.57
2023-05-20T03:40:10.777Z,11.56
2023-05-20T03:42:40.083Z,11.55
2023-05-20T03:45:10.776Z,11.56
2023-05-20T03:47:45.712Z,11.58
2023-05-20T03:50:14.534Z,11.60
2023-05-20T03:52:43.372Z,11.61
2023-05-20T03:55:12.263Z,11.61
2023-05-20T03:57:40.939Z,11.61
2023-05-20T04:00:13.911Z,11.60
2023-05-20T04:02:45.852Z,11.57
2023-05-20T04:05:16.796Z,11.56
2023-05-20T04:07:45.745Z,11.55
2023-05-20T04:10:14.973Z,11.54
2023-05-20T04:12:43.717Z,11.53
2023-05-20T04:15:14.322Z,11.54
2023-05-20T04:17:49.941Z,11.55
2023-05-20T04:20:21.330Z,11.56
2023-05-20T04:22:50.268Z,11.57
2023-05-20T04:25:19.419Z,11.58
2023-05-20T04:27:49.194Z,11.59
2023-05-20T04:30:18.029Z,11.60
2023-05-20T04:32:47.715Z,11.62
2023-05-20T04:35:16.512Z,11.64
2023-05-20T04:37:47.695Z,11.66
2023-05-20T04:40:16.711Z,11.66
2023-05-20T04:42:45.312Z,11.67
2023-05-20T04:45:14.138Z,11.71
2023-05-20T04:47:43.970Z,11.74
2023-05-20T04:50:14.147Z,11.74
2023-05-20T04:52:44.833Z,11.72
2023-05-20T04:55:15.265Z,11.72
2023-05-20T04:57:44.915Z,11.72
2023-05-20T05:00:17.546Z,11.74
2023-05-20T05:02:47.129Z,11.75
2023-05-20T05:05:16.245Z,11.77
2023-05-20T05:07:45.065Z,11.83
2023-05-20T05:10:15.136Z,11.86
2023-05-20T05:12:43.994Z,11.92
2023-05-20T05:15:13.385Z,11.94
2023-05-20T05:17:47.626Z,11.95
2023-05-20T05:20:34.264Z,11.94
2023-05-20T05:23:13.054Z,11.93
2023-05-20T05:25:50.921Z,11.94
2023-05-20T05:28:19.747Z,11.97
2023-05-20T05:30:54.896Z,11.98
2023-05-20T05:33:31.277Z,12.00
2023-05-20T05:36:05.564Z,12.03
2023-05-20T05:38:37.199Z,12.04
2023-05-20T05:41:06.819Z,12.06
2023-05-20T05:43:36.749Z,12.08
2023-05-20T05:46:09.734Z,12.09
2023-05-20T05:48:41.907Z,12.06
2023-05-20T05:51:18.426Z,12.03
2023-05-20T05:53:47.403Z,11.98
2023-05-20T05:56:18.061Z,11.96
2023-05-20T05:58:47.810Z,11.95
2023-05-20T06:01:20.032Z,11.94
2023-05-20T06:03:56.115Z,11.94
2023-05-20T06:06:29.551Z,11.94
2023-05-20T06:08:58.782Z,11.97
2023-05-20T06:11:30.264Z,11.99
2023-05-20T06:14:08.687Z,12.02
2023-05-20T06:16:43.158Z,12.06
2023-05-20T06:19:14.329Z,12.08
2023-05-20T06:21:47.702Z,12.10
2023-05-20T06:24:20.300Z,12.14
2023-05-20T06:26:50.625Z,12.18
2023-05-20T06:29:19.343Z,12.22
2023-05-20T06:31:48.018Z,12.26
2023-05-20T06:34:17.235Z,12.30
2023-05-20T06:36:46.454Z,12.32
2023-05-20T06:39:15.194Z,12.32
2023-05-20T06:41:47.556Z,12.36
2023-05-20T06:44:24.987Z,12.39
2023-05-20T06:47:02.838Z,12.40
2023-05-20T06:49:32.756Z,12.45
2023-05-20T06:52:02.293Z,12.48
2023-05-20T06:54:33.609Z,12.51
2023-05-20T06:57:03.261Z,12.53
2023-05-20T06:59:31.961Z,12.54
2023-05-20T07:02:00.992Z,12.56
2023-05-20T07:04:30.019Z,12.61
2023-05-20T07:06:59.206Z,12.67
2023-05-20T07:09:28.088Z,12.75
2023-05-20T07:11:56.944Z,12.81
2023-05-20T07:14:25.654Z,12.83
2023-05-20T07:16:54.468Z,12.87
2023-05-20T07:19:23.829Z,12.87
2023-05-20T07:21:52.981Z,12.88
2023-05-20T07:24:45.274Z,12.88
2023-05-20T07:27:14.264Z,12.87
2023-05-20T07:29:43.218Z,12.92
2023-05-20T07:32:12.371Z,12.97
2023-05-20T07:34:40.983Z,13.04
2023-05-20T07:37:12.127Z,13.09
2023-05-20T07:39:42.312Z,13.14
2023-05-20T07:42:11.087Z,13.16
2023-05-20T07:44:42.337Z,13.20
2023-05-20T07:47:11.362Z,13.22
2023-05-20T07:49:40.166Z,13.24
2023-05-20T07:52:09.194Z,13.24
2023-05-20T07:54:38.005Z,13.27
2023-05-20T07:57:07.148Z,13.30
2023-05-20T07:59:35.908Z,13.35
2023-05-20T08:02:05.049Z,13.41
2023-05-20T08:04:34.518Z,13.50
2023-05-20T08:07:03.458Z,13.59
2023-05-20T08:09:50.992Z,13.65
2023-05-20T08:12:20.230Z,13.72
2023-05-20T08:14:49.168Z,13.81
2023-05-20T08:17:18.428Z,13.91
2023-05-20T08:19:47.220Z,14.01
2023-05-20T08:22:16.185Z,14.08
2023-05-20T08:24:45.138Z,14.11
2023-05-20T08:27:13.954Z,14.17
2023-05-20T08:29:44.626Z,14.22
2023-05-20T08:32:13.416Z,14.26
2023-05-20T08:34:42.553Z,14.28
2023-05-20T08:37:11.226Z,14.31
2023-05-20T08:39:40.137Z,14.36
2023-05-20T08:42:12.892Z,14.42
2023-05-20T08:44:42.525Z,14.48
2023-05-20T08:47:11.714Z,14.53
2023-05-20T08:49:40.475Z,14.58
2023-05-20T08:52:13.504Z,14.64
2023-05-20T08:54:46.303Z,14.69
2023-05-20T08:57:15.141Z,14.75
2023-05-20T08:59:46.117Z,14.80
2023-05-20T09:02:15.169Z,14.78
2023-05-20T09:04:44.064Z,14.80
2023-05-20T09:07:13.173Z,14.76
2023-05-20T09:09:41.902Z,14.73
2023-05-20T09:12:10.795Z,14.74
2023-05-20T09:14:39.500Z,14.78
2023-05-20T09:17:11.861Z,14.80
2023-05-20T09:19:41.367Z,14.84
2023-05-20T09:22:10.379Z,14.94
2023-05-20T09:24:43.952Z,15.04
2023-05-20T09:27:15.769Z,15.15
2023-05-20T09:29:44.630Z,15.25
2023-05-20T09:32:15.272Z,15.40
2023-05-20T09:34:44.848Z,15.52
2023-05-20T09:37:17.417Z,15.65
2023-05-20T09:39:56.041Z,15.80
2023-05-20T09:42:38.489Z,15.91
2023-05-20T09:45:09.221Z,16.04
2023-05-20T09:47:40.687Z,16.09
2023-05-20T09:50:11.364Z,16.08
2023-05-20T09:52:40.875Z,16.02
2023-05-20T09:55:10.763Z,15.96
2023-05-20T09:57:39.530Z,15.99
2023-05-20T10:00:10.048Z,16.08
2023-05-20T10:02:45.502Z,16.23
2023-05-20T10:05:19.916Z,16.35
2023-05-20T10:08:18.132Z,16.38
2023-05-20T10:10:50.710Z,16.44
2023-05-20T10:13:32.892Z,16.46
2023-05-20T10:16:10.705Z,16.52
2023-05-20T10:18:52.032Z,16.61
2023-05-20T10:21:23.885Z,16.69
2023-05-20T10:23:52.953Z,16.84
2023-05-20T10:26:21.985Z,17.00
2023-05-20T10:28:51.047Z,17.17
2023-05-20T10:31:22.595Z,17.38
2023-05-20T10:33:53.959Z,17.64
2023-05-20T10:36:27.592Z,17.91
2023-05-20T10:38:59.523Z,18.08
2023-05-20T10:41:29.194Z,18.18
2023-05-20T10:44:02.474Z,18.24
2023-05-20T10:46:41.869Z,18.32
2023-05-20T10:49:22.410Z,18.37
2023-05-20T10:51:53.542Z,18.59
2023-05-20T10:54:22.952Z,18.82
2023-05-20T10:56:55.101Z,18.95
2023-05-20T10:59:24.377Z,18.93
2023-05-20T11:01:55.954Z,18.94
2023-05-20T11:04:24.935Z,18.91
2023-05-20T11:06:55.335Z,18.91
2023-05-20T11:09:24.460Z,18.95
2023-05-20T11:11:54.960Z,19.01
2023-05-20T11:14:23.895Z,19.08
2023-05-20T11:16:55.984Z,19.19
2023-05-20T11:19:26.000Z,19.35
2023-05-20T11:21:54.804Z,19.51
2023-05-20T11:24:28.111Z,19.63
2023-05-20T11:26:57.645Z,19.69
2023-05-20T11:29:28.468Z,19.78
2023-05-20T11:31:57.866Z,19.92
2023-05-20T11:41:52.492Z,19.95
2023-05-20T11:44:21.614Z,19.99
2023-05-20T11:46:50.264Z,20.07
2023-05-20T11:49:19.116Z,20.20
2023-05-20T11:51:47.750Z,20.27
2023-05-20T11:54:16.439Z,20.35
2023-05-20T11:56:45.460Z,20.38
2023-05-20T11:59:15.351Z,20.42
2023-05-20T12:01:44.946Z,20.52
2023-05-20T12:04:14.161Z,20.67
2023-05-20T12:06:43.404Z,20.82
2023-05-20T12:09:13.413Z,20.91
2023-05-20T12:11:43.902Z,20.91
2023-05-20T12:14:12.729Z,20.84
2023-05-20T12:16:41.478Z,20.79
2023-05-20T12:19:10.261Z,20.78
2023-05-20T12:21:39.218Z,20.83
2023-05-20T12:24:08.693Z,20.84
2023-05-20T12:26:41.033Z,20.78
2023-05-20T12:29:10.234Z,20.76
2023-05-20T12:31:39.222Z,20.71
2023-05-20T12:34:14.805Z,20.61
2023-05-20T12:36:47.901Z,20.70
2023-05-20T12:39:17.956Z,20.82
2023-05-20T12:41:46.625Z,20.90
2023-05-20T12:44:15.533Z,20.89
2023-05-20T12:46:44.287Z,20.90
2023-05-20T12:49:13.177Z,21.00
2023-05-20T12:51:42.063Z,21.13
2023-05-20T12:54:10.994Z,21.16
2023-05-20T12:56:40.048Z,21.12
2023-05-20T12:59:09.067Z,21.09
2023-05-20T13:01:38.177Z,21.04
2023-05-20T13:04:06.972Z,20.96
2023-05-20T13:06:35.940Z,20.95
2023-05-20T13:09:05.079Z,21.02
2023-05-20T13:11:33.892Z,21.07
2023-05-20T13:14:04.461Z,21.12
2023-05-20T13:16:34.461Z,21.17
2023-05-20T13:19:03.304Z,21.19
2023-05-20T13:21:32.080Z,21.23
2023-05-20T13:24:00.900Z,21.26
2023-05-20T13:26:29.599Z,21.32
2023-05-20T13:28:58.307Z,21.37
2023-05-20T13:31:27.103Z,21.38
2023-05-20T13:33:58.524Z,21.41
2023-05-20T13:36:27.478Z,21.42
2023-05-20T13:38:56.204Z,21.43
2023-05-20T13:41:26.987Z,21.47
2023-05-20T13:43:55.691Z,21.48
2023-05-20T13:46:24.458Z,21.48
2023-05-20T13:48:53.249Z,21.48
2023-05-20T13:51:21.932Z,21.42
2023-05-20T13:53:50.560Z,21.38
2023-05-20T13:56:19.503Z,21.32
2023-05-20T13:58:48.247Z,21.30
2023-05-20T14:01:17.559Z,21.32
2023-05-20T14:03:46.724Z,21.38
2023-05-20T14:06:18.207Z,21.44
2023-05-20T14:08:57.993Z,21.49
2023-05-20T14:11:29.063Z,21.53
2023-05-20T14:13:57.760Z,21.55
2023-05-20T14:16:26.879Z,21.56
2023-05-20T14:19:00.419Z,21.58
2023-05-20T14:21:34.125Z,21.60
2023-05-20T14:24:03.984Z,21.67
2023-05-20T14:26:33.734Z,21.72
2023-05-20T14:29:02.657Z,21.72
2023-05-20T14:31:31.910Z,21.71
2023-05-20T14:34:02.960Z,21.69
2023-05-20T14:36:31.721Z,21.71
2023-05-20T14:39:02.928Z,21.70
2023-05-20T14:41:36.355Z,21.71
2023-05-20T14:44:08.190Z,21.66
2023-05-20T14:46:47.610Z,21.61
2023-05-20T14:49:18.085Z,21.61
2023-05-20T14:51:49.118Z,21.62
2023-05-20T14:54:18.534Z,21.63
2023-05-20T14:56:49.273Z,21.61
2023-05-20T14:59:18.849Z,21.58
2023-05-20T15:01:47.587Z,21.58
2023-05-20T15:04:16.402Z,21.61
2023-05-20T15:06:45.225Z,21.64
2023-05-20T15:09:14.265Z,21.65
2023-05-20T15:11:43.117Z,21.64
2023-05-20T15:14:11.827Z,21.62
2023-05-20T15:16:40.508Z,21.62
2023-05-20T15:19:09.218Z,21.58
2023-05-20T15:21:37.954Z,21.55
2023-05-20T15:24:06.820Z,21.51
2023-05-20T15:26:35.847Z,21.48
2023-05-20T15:29:04.518Z,21.48
2023-05-20T15:31:33.206Z,21.47
2023-05-20T15:34:02.104Z,21.47
2023-05-20T15:36:31.515Z,21.45
2023-05-20T15:39:00.288Z,21.42
2023-05-20T15:41:31.330Z,21.39
2023-05-20T15:44:00.140Z,21.38
2023-05-20T15:46:29.018Z,21.37
2023-05-20T15:48:57.759Z,21.34
2023-05-20T15:51:26.604Z,21.32
2023-05-20T15:53:55.338Z,21.31
2023-05-20T15:56:24.101Z,21.29
2023-05-20T15:58:52.905Z,21.27
2023-05-20T16:01:22.130Z,21.24
2023-05-20T16:03:50.996Z,21.23
2023-05-20T16:06:19.838Z,21.22
2023-05-20T16:08:48.453Z,21.23
2023-05-20T16:11:17.285Z,21.23
2023-05-20T16:13:46.020Z,21.23
2023-05-20T16:16:16.109Z,21.23
2023-05-20T16:18:45.197Z,21.25
2023-05-20T16:21:13.899Z,21.26
2023-05-20T16:23:42.889Z,21.26
2023-05-20T16:26:11.759Z,21.25
2023-05-20T16:28:40.470Z,21.26
2023-05-20T16:31:09.505Z,21.26
2023-05-20T16:33:38.170Z,21.24
2023-05-20T16:36:07.459Z,21.24
2023-05-20T16:38:36.285Z,21.23
2023-05-20T16:41:05.056Z,21.22
2023-05-20T16:43:37.170Z,21.22
2023-05-20T16:46:05.987Z,21.23
2023-05-20T16:48:34.688Z,21.23
2023-05-20T16:51:08.350Z,21.24
2023-05-20T16:53:37.906Z,21.27
2023-05-20T16:56:10.808Z,21.29
2023-05-20T16:58:39.661Z,21.32
2023-05-20T17:01:11.971Z,21.34
2023-05-20T17:03:44.719Z,21.34
2023-05-20T17:06:13.641Z,21.34
2023-05-20T17:08:47.032Z,21.34
2023-05-20T17:11:16.831Z,21.35
2023-05-20T17:13:45.772Z,21.34
2023-05-20T17:16:15.066Z,21.33
2023-05-20T17:18:48.763Z,21.31
2023-05-20T17:21:19.798Z,21.29
2023-05-20T17:23:49.205Z,21.28
2023-05-20T17:26:21.805Z,21.23
2023-05-20T17:28:50.561Z,21.21
2023-05-20T17:31:20.124Z,21.17
2023-05-20T17:33:51.268Z,21.15
2023-05-20T17:36:24.642Z,21.13
2023-05-20T17:38:53.907Z,21.09
2023-05-20T17:41:25.826Z,21.06
2023-05-20T17:43:58.697Z,21.02
2023-05-20T17:46:27.470Z,20.99
2023-05-20T17:48:57.425Z,20.94
2023-05-20T17:51:26.271Z,20.91
2023-05-20T17:53:57.473Z,20.86
2023-05-20T17:56:26.642Z,20.78
2023-05-20T17:58:56.216Z,20.72
2023-05-20T18:01:25.121Z,20.64
2023-05-20T18:03:56.325Z,20.56
2023-05-20T18:06:26.049Z,20.48
2023-05-20T18:08:55.378Z,20.39
2023-05-20T18:11:28.607Z,20.30
2023-05-20T18:13:58.522Z,20.22
2023-05-20T18:16:30.475Z,20.13
2023-05-20T18:19:02.385Z,20.06
2023-05-20T18:21:31.412Z,19.99
2023-05-20T18:24:00.863Z,19.91
2023-05-20T18:26:29.706Z,19.83
2023-05-20T18:28:59.366Z,19.74
2023-05-20T18:31:28.937Z,19.65
2023-05-20T18:34:01.311Z,19.55
2023-05-20T18:36:33.493Z,19.45
2023-05-20T18:39:02.190Z,19.35
2023-05-20T18:41:39.364Z,19.26
2023-05-20T18:44:15.441Z,19.16
2023-05-20T18:46:44.203Z,19.05
2023-05-20T18:49:16.834Z,18.90
2023-05-20T18:51:45.674Z,18.71
2023-05-20T18:54:14.970Z,18.51
2023-05-20T18:56:47.806Z,18.36
2023-05-20T18:59:16.948Z,18.20
2023-05-20T19:01:45.841Z,18.07
2023-05-20T19:06:43.970Z,17.89
2023-05-20T19:09:12.749Z,17.84
2023-05-20T19:11:41.654Z,17.78
2023-05-20T19:14:10.919Z,17.74
2023-05-20T19:16:39.750Z,17.69
2023-05-20T19:19:08.607Z,17.65
2023-05-20T19:21:40.749Z,17.64
2023-05-20T19:24:09.770Z,17.61
2023-05-20T19:26:38.585Z,17.57
2023-05-20T19:29:07.259Z,17.53
2023-05-20T19:31:36.501Z,17.48
2023-05-20T19:34:05.601Z,17.44
2023-05-20T19:36:37.518Z,17.39
2023-05-20T19:39:07.342Z,17.33
2023-05-20T19:41:37.836Z,17.29
2023-05-20T19:44:07.269Z,17.27
2023-05-20T19:46:36.324Z,17.24
2023-05-20T19:49:05.611Z,17.23
2023-05-20T19:51:34.392Z,17.20
2023-05-20T19:54:03.463Z,17.15
2023-05-20T19:56:32.148Z,17.12
2023-05-20T19:59:01.501Z,17.09
2023-05-20T20:01:31.143Z,17.08
2023-05-20T20:03:59.836Z,17.08
2023-05-20T20:06:32.058Z,17.07
2023-05-20T20:09:01.040Z,17.08
2023-05-20T20:11:29.830Z,17.06
2023-05-20T20:14:00.230Z,17.03
2023-05-20T20:16:29.958Z,16.99
2023-05-20T20:18:59.063Z,16.95
2023-05-20T20:21:32.038Z,16.90
2023-05-20T20:24:00.975Z,16.83
2023-05-20T20:26:29.954Z,16.74
2023-05-20T20:28:58.793Z,16.66
2023-05-20T20:31:27.653Z,16.60
2023-05-20T20:33:56.296Z,16.55
2023-05-20T20:36:25.070Z,16.53
2023-05-20T20:38:53.712Z,16.52
2023-05-20T20:41:22.478Z,16.49
2023-05-20T20:43:51.590Z,16.48
2023-05-20T20:46:20.702Z,16.45
2023-05-20T20:48:49.787Z,16.39
2023-05-20T20:51:18.500Z,16.28
2023-05-20T20:53:48.065Z,16.21
2023-05-20T20:56:17.915Z,16.17
2023-05-20T20:58:46.812Z,16.15
2023-05-20T21:01:16.758Z,16.14
2023-05-20T21:03:45.568Z,16.15
2023-05-20T21:06:14.321Z,16.16
2023-05-20T21:08:43.060Z,16.18
2023-05-20T21:11:13.981Z,16.19
2023-05-20T21:13:42.829Z,16.19
2023-05-20T21:16:11.480Z,16.18
2023-05-20T21:18:40.173Z,16.16
2023-05-20T21:21:11.719Z,16.13
2023-05-20T21:23:40.667Z,16.08
2023-05-20T21:26:09.741Z,16.02
2023-05-20T21:28:38.493Z,15.96
2023-05-20T21:31:07.178Z,15.90
2023-05-20T21:33:35.884Z,15.84
2023-05-20T21:36:05.555Z,15.80
2023-05-20T21:38:34.388Z,15.76
2023-05-20T21:41:03.093Z,15.72
2023-05-20T21:43:31.813Z,15.67
2023-05-20T21:46:00.549Z,15.62
2023-05-20T21:48:29.287Z,15.53
2023-05-20T21:50:57.922Z,15.47
2023-05-20T21:53:26.678Z,15.41
2023-05-20T21:55:55.751Z,15.37
2023-05-20T21:58:24.590Z,15.34
2023-05-20T22:00:53.417Z,15.34
2023-05-20T22:03:22.199Z,15.37
2023-05-20T22:05:51.170Z,15.42
2023-05-20T22:08:19.844Z,15.47
2023-05-20T22:10:48.605Z,15.51
2023-05-20T22:13:19.946Z,15.52
2023-05-20T22:15:48.846Z,15.55
2023-05-20T22:18:17.552Z,15.56
2023-05-20T22:20:47.031Z,15.58
2023-05-20T22:23:15.777Z,15.57
2023-05-20T22:25:44.623Z,15.57
2023-05-20T22:28:13.355Z,15.55
2023-05-20T22:30:42.057Z,15.55
2023-05-20T22:33:11.396Z,15.54
2023-05-20T22:35:40.152Z,15.51
2023-05-20T22:38:08.884Z,15.49
2023-05-20T22:40:38.604Z,15.46
2023-05-20T22:43:07.299Z,15.42
2023-05-20T22:45:36.229Z,15.37
2023-05-20T22:48:05.827Z,15.31
2023-05-20T22:50:34.740Z,15.26
2023-05-20T22:53:03.455Z,15.22
2023-05-20T22:55:32.180Z,15.18
2023-05-20T22:58:00.925Z,15.15
2023-05-20T23:00:29.743Z,15.11
2023-05-20T23:02:58.706Z,15.08
2023-05-20T23:05:29.489Z,15.04
2023-05-20T23:07:58.397Z,14.99
2023-05-20T23:10:27.104Z,14.95
2023-05-20T23:12:55.846Z,14.91
2023-05-20T23:15:24.955Z,14.86
2023-05-20T23:17:53.757Z,14.82
2023-05-20T23:20:22.696Z,14.78
2023-05-20T23:22:51.665Z,14.74
2023-05-20T23:25:21.332Z,14.70
2023-05-20T23:27:50.345Z,14.67
2023-05-20T23:30:19.101Z,14.65
2023-05-20T23:32:47.852Z,14.60
2023-05-20T23:35:17.984Z,14.55
2023-05-20T23:37:46.786Z,14.52
2023-05-20T23:40:15.657Z,14.50
2023-05-20T23:42:44.397Z,14.47
2023-05-20T23:45:13.385Z,14.47
2023-05-20T23:47:42.984Z,14.47
2023-05-20T23:50:13.148Z,14.47
2023-05-20T23:52:41.818Z,14.47
2023-05-20T23:55:12.214Z,14.45
2023-05-20T23:57:40.951Z,14.44
